• Join FlightAware (Why Join?)
  • Login
  • US Flag 
08:03AM EDT


 

Airport Tracker/Info


-or-


 

Live Flight TrackerFlight Track Log ✈ WBR2634 ✈ 03-Jun-2013 ✈ KBRL - KORD

Flight Track Log - Related Links

Times and Time Zones

All times are in EDT time to prevent confusion due to time zone crossing. See the WBR2634 flight status page for this flight to view local times or setup timezone preferences in your user account.

Time Position Orientation Groundspeed Altitude Reporting Facility
EDT Latitude Longitude Course Direction KTS MPH feet Rate Location/Type
06:04PM 40.7636 -91.0883 66° East 124 143 2,200  Level Chicago Center
06:05PM 40.7783 -91.0522 62° Northeast 113 130 3,000 780 Climbing Chicago Center
06:06PM 40.8397 -90.8412 72° East  Level FlightAware Approximate
06:06PM 40.7919 -91.0133 65° Northeast 114 131 3,900  Level Chicago Center
06:07PM 40.8833 -90.8109 90° East  Level FlightAware Approximate
06:07PM 40.8056 -90.9742 65° Northeast 116 133 4,800  Level Chicago Center
06:08PM 40.9023 -90.7598 66° East  Level FlightAware Approximate
06:08PM 40.8181 -90.9331 68° East 118 136 5,600  Level Chicago Center
06:09PM 40.9201 -90.7065 66° East  Level FlightAware Approximate
06:09PM 40.8328 -90.8919 65° Northeast 123 142 6,400  Level Chicago Center
06:10PM 40.8511 -90.8408 65° Northeast 127 146 7,300 720 Climbing Chicago Center
06:11PM 40.8667 -90.7964 65° Northeast 131 151 8,000 660 Climbing Chicago Center
06:12PM 40.8833 -90.7547 62° Northeast 129 148 8,700 480 Climbing Chicago Center
06:13PM 40.9014 -90.7083 63° Northeast 139 160 9,000 120 Climbing Chicago Center
06:14PM 40.9225 -90.6589 61° Northeast 152 175 9,000  Level Chicago Center
06:16PM 40.9408 -90.6053 66° East 158 182 9,000  Level Chicago Center
06:17PM 40.9656 -90.5411 63° Northeast 162 186 9,000  Level Chicago Center
06:18PM 40.9833 -90.4875 66° East 160 184 9,000  Level Chicago Center
06:19PM 41.0025 -90.4347 64° Northeast 157 181 9,000  Level Chicago Center
06:20PM 41.0219 -90.3808 64° Northeast 160 184 9,000  Level Chicago Center
06:21PM 41.0408 -90.3278 65° Northeast 160 184 9,000  Level Chicago Center
06:22PM 41.0594 -90.2747 65° Northeast 159 183 9,000  Level Chicago Center
06:23PM 41.0772 -90.2217 66° East 158 182 9,000  Level Chicago Center
06:24PM 41.1000 -90.1569 65° Northeast 160 184 9,000  Level Chicago Center
06:25PM 41.1178 -90.1022 67° East 161 185 9,000  Level Chicago Center
06:26PM 41.1367 -90.0514 64° Northeast 156 180 9,000  Level Chicago Center
06:27PM 41.1561 -89.9958 65° Northeast 160 184 9,000  Level Chicago Center
06:28PM 41.1742 -89.9431 66° East 160 184 9,000  Level Chicago Center
06:29PM 41.1936 -89.8886 65° Northeast 161 185 9,000  Level Chicago Center
06:30PM 41.2111 -89.8344 67° East 161 185 9,000  Level Chicago Center
06:31PM 41.2353 -89.7728 62° Northeast 158 182 9,000  Level Chicago Center
06:32PM 41.2531 -89.7200 66° East 157 181 9,000  Level Chicago Center
06:33PM 41.2717 -89.6658 65° Northeast 159 183 9,000  Level Chicago Center
06:34PM 41.2881 -89.6106 68° East 161 185 9,000  Level Chicago Center
06:35PM 41.3050 -89.5550 68° East 162 186 9,000  Level Chicago Center
06:36PM 41.3236 -89.5014 65° Northeast 161 185 9,000  Level Chicago Center
06:37PM 41.3464 -89.4372 65° Northeast 160 184 9,000  Level Chicago Center
06:38PM 41.3642 -89.3833 66° East 159 183 9,000  Level Chicago Center
06:39PM 41.3808 -89.3258 69° East 164 189 9,000  Level Chicago Center
06:40PM 41.3989 -89.2736 65° Northeast 158 182 9,000 -300 Level Chicago Center
06:41PM 41.4164 -89.2161 68° East 165 190 8,500 -540 Descending Chicago Center
06:42PM 41.4378 -89.1539 65° Northeast 167 192 8,000 -300 Descending Chicago Center
06:43PM 41.4567 -89.1011 64° Northeast 161 185 8,000  Level Chicago Center
06:44PM 41.4736 -89.0494 66° East 156 180 8,000  Level Chicago Center
06:46PM 41.4944 -88.9886 65° Northeast 153 176 8,000  Level Chicago Center
06:47PM 41.5103 -88.9342 69° East 157 181 8,000  Level Chicago Center
06:48PM 41.5281 -88.8822 65° Northeast 155 178 8,000  Level Chicago Center
06:49PM 41.5450 -88.8300 67° East 155 178 8,000  Level Chicago Center
06:50PM 41.5633 -88.7772 65° Northeast 155 178 8,000  Level Chicago Center
06:51PM 41.5797 -88.7236 68° East 158 182 8,000  Level Chicago Center
06:52PM 41.6008 -88.6578 67° East 160 184 8,000  Level Chicago Center
06:53PM 41.6169 -88.6039 68° East 157 181 8,000  Level Chicago Center
06:54PM 41.6400 -88.5558 57° Northeast 157 181 8,000  Level Chicago Center
06:55PM 41.6650 -88.5092 54° Northeast 155 178 8,000  Level Chicago Center
06:56PM 41.6875 -88.4597 59° Northeast 156 180 8,000 -240 Level Chicago Center
06:57PM 41.7131 -88.4122 54° Northeast 157 181 7,500 -480 Descending Chicago Center
06:58PM 41.7492 -88.3611 47° Northeast 165 190 7,000 -300 Descending Chicago Center
06:59PM 41.7878 -88.3631 358° North 147 169 7,000  Level Chicago Center
07:00PM 41.8281 -88.3675 355° North 146 168 7,000  Level Chicago Center
07:01PM 41.8706 -88.3661 North 150 173 7,000 -60 Level Chicago Center
07:02PM 41.9114 -88.3700 356° North 150 173 6,900 -540 Descending Chicago Center
07:03PM 41.9583 -88.3458 21° North 162 186 6,000 -720 Descending Chicago Center
07:04PM 41.9678 -88.2842 78° East 185 213 5,500 -600 Descending Chicago Center
07:05PM 41.9686 -88.2156 89° East 185 213 4,800 -840 Descending Chicago Center
07:06PM 41.9686 -88.1453 90° East 185 213 3,800 -960 Descending Chicago Center
07:07PM 41.9681 -88.0781 91° East 184 212 2,900 -960 Descending Chicago Center
07:08PM 41.9681 -88.0156 90° East 179 206 1,900 -960 Descending Chicago Center
07:09PM 41.9667 -87.9333 91° East 136 157 900 -900 Descending Chicago TRACON
07:11PM 41.9667 -87.9000 83° East  Level FlightAware Approximate
07:18PM 41.9817 -87.9067 83° East  Level Estimated